sensor_id;sensor_type;location;lat;lon;timestamp;pressure;altitude;pressure_sealevel;temperature;humidity
79453;BME280;68899;52.116;5.404;2023-09-12T00:00:37;101406.03;;;25.10;63.85
79453;BME280;68899;52.116;5.404;2023-09-12T00:03:04;101400.63;;;25.10;64.08
79453;BME280;68899;52.116;5.404;2023-09-12T00:05:31;101404.34;;;25.09;63.81
79453;BME280;68899;52.116;5.404;2023-09-12T00:07:57;101405.19;;;25.09;64.11
79453;BME280;68899;52.116;5.404;2023-09-12T00:10:24;101396.28;;;25.09;63.50
79453;BME280;68899;52.116;5.404;2023-09-12T00:12:51;101380.13;;;25.09;63.84
79453;BME280;68899;52.116;5.404;2023-09-12T00:15:17;101389.03;;;25.09;63.52
79453;BME280;68899;52.116;5.404;2023-09-12T00:17:46;101373.06;;;25.08;63.46
79453;BME280;68899;52.116;5.404;2023-09-12T00:20:15;101377.44;;;25.09;63.78
79453;BME280;68899;52.116;5.404;2023-09-12T00:22:41;101384.84;;;25.07;63.96
79453;BME280;68899;52.116;5.404;2023-09-12T00:25:08;101379.47;;;25.07;63.69
79453;BME280;68899;52.116;5.404;2023-09-12T00:27:35;101375.09;;;25.06;63.74
79453;BME280;68899;52.116;5.404;2023-09-12T00:30:01;101375.09;;;25.06;63.74
79453;BME280;68899;52.116;5.404;2023-09-12T00:32:28;101370.72;;;25.05;63.90
79453;BME280;68899;52.116;5.404;2023-09-12T00:34:54;101366.19;;;25.05;63.25
79453;BME280;68899;52.116;5.404;2023-09-12T00:37:21;101369.06;;;25.04;63.25
79453;BME280;68899;52.116;5.404;2023-09-12T00:39:47;101369.91;;;25.04;63.20
79453;BME280;68899;52.116;5.404;2023-09-12T00:42:14;101374.25;;;25.05;63.21
79453;BME280;68899;52.116;5.404;2023-09-12T00:44:40;101373.59;;;25.03;63.83
79453;BME280;68899;52.116;5.404;2023-09-12T00:47:08;101380.00;;;25.02;63.66
79453;BME280;68899;52.116;5.404;2023-09-12T00:49:37;101388.09;;;25.02;63.38
79453;BME280;68899;52.116;5.404;2023-09-12T00:52:04;101384.50;;;25.02;63.11
79453;BME280;68899;52.116;5.404;2023-09-12T00:54:31;101381.78;;;25.02;63.04
79453;BME280;68899;52.116;5.404;2023-09-12T00:56:58;101389.03;;;25.01;63.07
79453;BME280;68899;52.116;5.404;2023-09-12T00:59:24;101391.91;;;25.00;63.15
79453;BME280;68899;52.116;5.404;2023-09-12T01:01:51;101390.06;;;25.00;63.56
79453;BME280;68899;52.116;5.404;2023-09-12T01:04:17;101391.91;;;25.00;63.38
79453;BME280;68899;52.116;5.404;2023-09-12T01:06:59;101386.72;;;24.98;62.86
79453;BME280;68899;52.116;5.404;2023-09-12T01:09:26;101389.22;;;25.00;63.13
79453;BME280;68899;52.116;5.404;2023-09-12T01:11:53;101387.72;;;24.97;63.03
79453;BME280;68899;52.116;5.404;2023-09-12T01:14:20;101385.03;;;24.97;63.07
79453;BME280;68899;52.116;5.404;2023-09-12T01:16:47;101379.00;;;24.95;63.36
79453;BME280;68899;52.116;5.404;2023-09-12T01:19:14;101379.00;;;24.95;63.36
79453;BME280;68899;52.116;5.404;2023-09-12T01:22:03;101386.06;;;24.96;63.11
79453;BME280;68899;52.116;5.404;2023-09-12T01:29:54;101388.09;;;24.94;62.88
79453;BME280;68899;52.116;5.404;2023-09-12T01:32:22;101391.75;;;24.93;63.00
79453;BME280;68899;52.116;5.404;2023-09-12T01:34:48;101386.56;;;24.92;63.49
79453;BME280;68899;52.116;5.404;2023-09-12T01:37:15;101387.56;;;24.91;62.93
79453;BME280;68899;52.116;5.404;2023-09-12T01:39:42;101386.75;;;24.90;63.51
79453;BME280;68899;52.116;5.404;2023-09-12T01:42:11;101386.75;;;24.90;62.98
79453;BME280;68899;52.116;5.404;2023-09-12T01:44:41;101385.06;;;24.89;63.33
79453;BME280;68899;52.116;5.404;2023-09-12T01:47:10;101380.69;;;24.88;63.27
79453;BME280;68899;52.116;5.404;2023-09-12T01:49:39;101380.69;;;24.88;63.13
79453;BME280;68899;52.116;5.404;2023-09-12T01:52:09;101379.88;;;24.88;63.30
79453;BME280;68899;52.116;5.404;2023-09-12T01:54:36;101379.03;;;24.87;63.03
79453;BME280;68899;52.116;5.404;2023-09-12T01:57:04;101371.97;;;24.86;62.74
79453;BME280;68899;52.116;5.404;2023-09-12T01:59:31;101379.22;;;24.86;63.08
79453;BME280;68899;52.116;5.404;2023-09-12T02:01:57;101375.69;;;24.85;63.44
79453;BME280;68899;52.116;5.404;2023-09-12T02:04:24;101369.44;;;24.85;63.05
79453;BME280;68899;52.116;5.404;2023-09-12T02:06:50;101374.81;;;24.85;62.84
79453;BME280;68899;52.116;5.404;2023-09-12T02:09:17;101370.44;;;24.84;63.25
79453;BME280;68899;52.116;5.404;2023-09-12T02:11:43;101362.56;;;24.82;63.36
79453;BME280;68899;52.116;5.404;2023-09-12T02:14:10;101363.38;;;24.83;63.17
79453;BME280;68899;52.116;5.404;2023-09-12T02:16:37;101369.78;;;24.81;63.00
79453;BME280;68899;52.116;5.404;2023-09-12T02:19:09;101368.94;;;24.81;63.21
79453;BME280;68899;52.116;5.404;2023-09-12T02:21:37;101363.56;;;24.81;63.31
79453;BME280;68899;52.116;5.404;2023-09-12T02:24:03;101364.75;;;24.78;62.97
79453;BME280;68899;52.116;5.404;2023-09-12T02:26:30;101364.59;;;24.80;63.36
79453;BME280;68899;52.116;5.404;2023-09-12T02:28:57;101365.59;;;24.79;62.91
79453;BME280;68899;52.116;5.404;2023-09-12T02:31:24;101367.47;;;24.78;63.02
79453;BME280;68899;52.116;5.404;2023-09-12T02:33:50;101361.25;;;24.78;63.27
79453;BME280;68899;52.116;5.404;2023-09-12T02:36:17;101367.63;;;24.77;63.26
79453;BME280;68899;52.116;5.404;2023-09-12T02:38:43;101376.72;;;24.76;63.03
79453;BME280;68899;52.116;5.404;2023-09-12T02:41:10;101374.19;;;24.74;62.84
79453;BME280;68899;52.116;5.404;2023-09-12T02:43:36;101379.41;;;24.76;62.63
79453;BME280;68899;52.116;5.404;2023-09-12T02:46:03;101368.81;;;24.74;63.20
79453;BME280;68899;52.116;5.404;2023-09-12T02:48:29;101369.81;;;24.73;63.16
79453;BME280;68899;52.116;5.404;2023-09-12T02:50:56;101372.50;;;24.73;62.90
79453;BME280;68899;52.116;5.404;2023-09-12T02:53:23;101367.31;;;24.72;63.25
79453;BME280;68899;52.116;5.404;2023-09-12T02:55:51;101377.88;;;24.73;62.92
79453;BME280;68899;52.116;5.404;2023-09-12T02:58:18;101374.72;;;24.70;63.07
79453;BME280;68899;52.116;5.404;2023-09-12T03:00:44;101373.06;;;24.69;62.56
79453;BME280;68899;52.116;5.404;2023-09-12T03:03:11;101372.03;;;24.70;62.94
79453;BME280;68899;52.116;5.404;2023-09-12T03:05:38;101373.06;;;24.69;62.69
79453;BME280;68899;52.116;5.404;2023-09-12T03:08:05;101376.75;;;24.68;63.21
79453;BME280;68899;52.116;5.404;2023-09-12T03:10:31;101378.59;;;24.67;62.74
79453;BME280;68899;52.116;5.404;2023-09-12T03:12:58;101384.81;;;24.68;63.04
79453;BME280;68899;52.116;5.404;2023-09-12T03:15:24;101374.22;;;24.66;63.09
79453;BME280;68899;52.116;5.404;2023-09-12T03:17:51;101375.22;;;24.65;62.69
79453;BME280;68899;52.116;5.404;2023-09-12T03:20:17;101377.09;;;24.65;62.65
79453;BME280;68899;52.116;5.404;2023-09-12T03:22:45;101387.84;;;24.65;62.69
79453;BME280;68899;52.116;5.404;2023-09-12T03:25:12;101383.47;;;24.64;62.94
79453;BME280;68899;52.116;5.404;2023-09-12T03:27:38;101379.13;;;24.63;62.97
79453;BME280;68899;52.116;5.404;2023-09-12T03:30:05;101374.56;;;24.63;62.68
79453;BME280;68899;52.116;5.404;2023-09-12T03:32:32;101368.34;;;24.63;62.73
79453;BME280;68899;52.116;5.404;2023-09-12T03:34:58;101363.16;;;24.61;62.48
79453;BME280;68899;52.116;5.404;2023-09-12T03:37:25;101364.00;;;24.62;62.46
79453;BME280;68899;52.116;5.404;2023-09-12T03:39:53;101361.47;;;24.60;62.95
79453;BME280;68899;52.116;5.404;2023-09-12T03:42:20;101370.38;;;24.61;62.89
79453;BME280;68899;52.116;5.404;2023-09-12T03:44:47;101371.53;;;24.58;62.48
79453;BME280;68899;52.116;5.404;2023-09-12T03:47:13;101363.47;;;24.58;63.19
79453;BME280;68899;52.116;5.404;2023-09-12T03:49:40;101368.03;;;24.58;63.14
79453;BME280;68899;52.116;5.404;2023-09-12T03:52:06;101364.50;;;24.57;62.74
79453;BME280;68899;52.116;5.404;2023-09-12T03:54:33;101353.06;;;24.55;62.41
79453;BME280;68899;52.116;5.404;2023-09-12T03:56:59;101353.06;;;24.55;63.09
79453;BME280;68899;52.116;5.404;2023-09-12T03:59:26;101352.22;;;24.55;62.76
79453;BME280;68899;52.116;5.404;2023-09-12T04:01:53;101362.16;;;24.54;62.69
79453;BME280;68899;52.116;5.404;2023-09-12T04:04:19;101361.31;;;24.53;62.92
79453;BME280;68899;52.116;5.404;2023-09-12T04:06:46;101351.56;;;24.52;62.36
79453;BME280;68899;52.116;5.404;2023-09-12T04:09:13;101356.13;;;24.52;62.62
79453;BME280;68899;52.116;5.404;2023-09-12T04:11:39;101360.66;;;24.51;62.40
79453;BME280;68899;52.116;5.404;2023-09-12T04:14:14;101362.66;;;24.49;62.93
79453;BME280;68899;52.116;5.404;2023-09-12T04:16:41;101359.13;;;24.49;62.79
79453;BME280;68899;52.116;5.404;2023-09-12T04:19:07;101360.84;;;24.50;62.61
79453;BME280;68899;52.116;5.404;2023-09-12T04:21:34;101353.75;;;24.49;62.71
79453;BME280;68899;52.116;5.404;2023-09-12T04:24:01;101348.38;;;24.49;62.62
79453;BME280;68899;52.116;5.404;2023-09-12T04:26:27;101343.00;;;24.49;62.50
79453;BME280;68899;52.116;5.404;2023-09-12T04:28:54;101344.84;;;24.48;62.60
79453;BME280;68899;52.116;5.404;2023-09-12T04:31:20;101337.78;;;24.47;62.42
79453;BME280;68899;52.116;5.404;2023-09-12T04:33:47;101335.28;;;24.46;62.53
79453;BME280;68899;52.116;5.404;2023-09-12T04:36:13;101336.31;;;24.45;62.58
79453;BME280;68899;52.116;5.404;2023-09-12T04:38:40;101344.38;;;24.45;62.44
79453;BME280;68899;52.116;5.404;2023-09-12T04:41:07;101339.00;;;24.45;62.22
79453;BME280;68899;52.116;5.404;2023-09-12T04:43:33;101337.13;;;24.45;62.17
79453;BME280;68899;52.116;5.404;2023-09-12T04:46:00;101332.78;;;24.44;62.46
79453;BME280;68899;52.116;5.404;2023-09-12T04:48:27;101338.16;;;24.44;62.47
79453;BME280;68899;52.116;5.404;2023-09-12T04:50:55;101337.50;;;24.42;62.65
79453;BME280;68899;52.116;5.404;2023-09-12T04:53:21;101337.50;;;24.42;62.47
79453;BME280;68899;52.116;5.404;2023-09-12T04:55:48;101343.72;;;24.43;62.73
79453;BME280;68899;52.116;5.404;2023-09-12T04:58:14;101342.88;;;24.42;62.75
79453;BME280;68899;52.116;5.404;2023-09-12T05:00:41;101331.28;;;24.42;62.47
79453;BME280;68899;52.116;5.404;2023-09-12T05:03:07;101331.28;;;24.42;62.58
79453;BME280;68899;52.116;5.404;2023-09-12T05:05:34;101321.69;;;24.39;62.65
79453;BME280;68899;52.116;5.404;2023-09-12T05:08:03;101330.59;;;24.40;62.64
79453;BME280;68899;52.116;5.404;2023-09-12T05:10:30;101335.97;;;24.40;62.24
79453;BME280;68899;52.116;5.404;2023-09-12T05:12:57;101341.53;;;24.38;62.39
79453;BME280;68899;52.116;5.404;2023-09-12T05:15:24;101341.53;;;24.38;62.23
79453;BME280;68899;52.116;5.404;2023-09-12T05:17:50;101345.88;;;24.39;62.73
79453;BME280;68899;52.116;5.404;2023-09-12T05:20:17;101349.59;;;24.38;62.13
79453;BME280;68899;52.116;5.404;2023-09-12T05:22:43;101343.38;;;24.38;62.67
79453;BME280;68899;52.116;5.404;2023-09-12T05:25:09;101342.53;;;24.37;62.26
79453;BME280;68899;52.116;5.404;2023-09-12T05:27:36;101348.94;;;24.36;62.80
79453;BME280;68899;52.116;5.404;2023-09-12T05:30:03;101347.91;;;24.37;62.23
79453;BME280;68899;52.116;5.404;2023-09-12T05:32:30;101344.56;;;24.35;62.21
79453;BME280;68899;52.116;5.404;2023-09-12T05:34:58;101356.16;;;24.36;62.47
79453;BME280;68899;52.116;5.404;2023-09-12T05:37:44;101349.94;;;24.35;62.57
79453;BME280;68899;52.116;5.404;2023-09-12T05:40:11;101349.09;;;24.35;62.02
79453;BME280;68899;52.116;5.404;2023-09-12T05:42:37;101350.13;;;24.34;62.08
79453;BME280;68899;52.116;5.404;2023-09-12T05:45:04;101343.91;;;24.33;62.50
79453;BME280;68899;52.116;5.404;2023-09-12T05:47:31;101348.44;;;24.33;62.09
79453;BME280;68899;52.116;5.404;2023-09-12T05:49:58;101347.56;;;24.32;62.17
79453;BME280;68899;52.116;5.404;2023-09-12T05:52:26;101350.28;;;24.32;61.97
79453;BME280;68899;52.116;5.404;2023-09-12T05:54:53;101345.59;;;24.34;62.11
79453;BME280;68899;52.116;5.404;2023-09-12T05:57:19;101341.38;;;24.32;61.95
79453;BME280;68899;52.116;5.404;2023-09-12T05:59:47;101336.81;;;24.32;61.98
79453;BME280;68899;52.116;5.404;2023-09-12T06:02:14;101348.56;;;24.31;62.46
79453;BME280;68899;52.116;5.404;2023-09-12T06:04:40;101358.34;;;24.32;62.12
79453;BME280;68899;52.116;5.404;2023-09-12T06:07:07;101357.50;;;24.32;62.03
79453;BME280;68899;52.116;5.404;2023-09-12T06:09:33;101362.00;;;24.31;61.87
79453;BME280;68899;52.116;5.404;2023-09-12T06:12:00;101372.75;;;24.31;62.17
79453;BME280;68899;52.116;5.404;2023-09-12T06:14:26;101380.84;;;24.31;61.83
79453;BME280;68899;52.116;5.404;2023-09-12T06:16:53;101376.47;;;24.30;62.45
79453;BME280;68899;52.116;5.404;2023-09-12T06:19:20;101376.47;;;24.30;62.36
79453;BME280;68899;52.116;5.404;2023-09-12T06:21:46;101374.78;;;24.29;62.60
79453;BME280;68899;52.116;5.404;2023-09-12T06:24:15;101380.16;;;24.29;62.48
79453;BME280;68899;52.116;5.404;2023-09-12T06:26:43;101380.16;;;24.29;62.38
79453;BME280;68899;52.116;5.404;2023-09-12T06:29:09;101382.84;;;24.29;62.14
79453;BME280;68899;52.116;5.404;2023-09-12T06:31:36;101388.06;;;24.31;62.24
79453;BME280;68899;52.116;5.404;2023-09-12T06:34:02;101386.38;;;24.30;62.11
79453;BME280;68899;52.116;5.404;2023-09-12T06:36:29;101375.63;;;24.30;62.22
79453;BME280;68899;52.116;5.404;2023-09-12T06:38:58;101385.53;;;24.29;62.02
79453;BME280;68899;52.116;5.404;2023-09-12T06:41:25;101389.06;;;24.30;62.29
79453;BME280;68899;52.116;5.404;2023-09-12T06:43:52;101381.84;;;24.30;62.29
79453;BME280;68899;52.116;5.404;2023-09-12T06:46:19;101394.28;;;24.31;61.85
79453;BME280;68899;52.116;5.404;2023-09-12T06:48:46;101392.59;;;24.30;61.91
79453;BME280;68899;52.116;5.404;2023-09-12T06:51:12;101388.91;;;24.31;62.06
79453;BME280;68899;52.116;5.404;2023-09-12T06:53:43;101388.91;;;24.31;61.99
79453;BME280;68899;52.116;5.404;2023-09-12T06:56:10;101391.59;;;24.31;61.84
79453;BME280;68899;52.116;5.404;2023-09-12T06:58:37;101393.28;;;24.32;62.21
79453;BME280;68899;52.116;5.404;2023-09-12T07:01:06;101390.59;;;24.32;61.76
79453;BME280;68899;52.116;5.404;2023-09-12T07:03:34;101397.69;;;24.33;62.05
79453;BME280;68899;52.116;5.404;2023-09-12T07:06:02;101398.53;;;24.34;61.80
79453;BME280;68899;52.116;5.404;2023-09-12T07:08:32;101405.75;;;24.33;62.04
79453;BME280;68899;52.116;5.404;2023-09-12T07:10:59;101397.69;;;24.33;61.97
79453;BME280;68899;52.116;5.404;2023-09-12T07:13:32;101403.06;;;24.33;62.03
79453;BME280;68899;52.116;5.404;2023-09-12T07:15:59;101395.84;;;24.34;61.86
79453;BME280;68899;52.116;5.404;2023-09-12T07:18:26;101384.25;;;24.33;61.81
79453;BME280;68899;52.116;5.404;2023-09-12T07:21:00;101386.94;;;24.33;62.17
79453;BME280;68899;52.116;5.404;2023-09-12T07:23:28;101381.56;;;24.33;61.86
79453;BME280;68899;52.116;5.404;2023-09-12T07:25:55;101390.28;;;24.35;61.85
79453;BME280;68899;52.116;5.404;2023-09-12T07:28:27;101391.28;;;24.34;61.88
79453;BME280;68899;52.116;5.404;2023-09-12T07:30:54;101393.16;;;24.34;62.11
79453;BME280;68899;52.116;5.404;2023-09-12T07:33:21;101385.09;;;24.34;62.28
79453;BME280;68899;52.116;5.404;2023-09-12T07:35:49;101382.41;;;24.34;62.13
79453;BME280;68899;52.116;5.404;2023-09-12T07:38:18;101394.81;;;24.35;62.38
79453;BME280;68899;52.116;5.404;2023-09-12T07:40:46;101392.97;;;24.35;62.06
79453;BME280;68899;52.116;5.404;2023-09-12T07:43:12;101387.59;;;24.35;62.03
79453;BME280;68899;52.116;5.404;2023-09-12T07:45:39;101392.97;;;24.35;62.34
79453;BME280;68899;52.116;5.404;2023-09-12T07:48:07;101400.19;;;24.35;62.42
79453;BME280;68899;52.116;5.404;2023-09-12T07:50:34;101399.84;;;24.38;62.25
79453;BME280;68899;52.116;5.404;2023-09-12T07:53:01;101397.81;;;24.40;62.51
79453;BME280;68899;52.116;5.404;2023-09-12T07:55:27;101395.13;;;24.40;62.56
79453;BME280;68899;52.116;5.404;2023-09-12T07:57:57;101394.28;;;24.39;62.63
79453;BME280;68899;52.116;5.404;2023-09-12T08:00:24;101405.22;;;24.38;63.25
79453;BME280;68899;52.116;5.404;2023-09-12T08:02:50;101400.69;;;24.38;62.96
79453;BME280;68899;52.116;5.404;2023-09-12T08:05:17;101409.41;;;24.40;63.32
79453;BME280;68899;52.116;5.404;2023-09-12T08:07:45;101410.94;;;24.43;62.81
79453;BME280;68899;52.116;5.404;2023-09-12T08:10:11;101409.75;;;24.45;63.08
79453;BME280;68899;52.116;5.404;2023-09-12T08:12:38;101416.81;;;24.46;62.87
79453;BME280;68899;52.116;5.404;2023-09-12T08:15:05;101419.31;;;24.48;62.91
79453;BME280;68899;52.116;5.404;2023-09-12T08:17:32;101420.16;;;24.48;63.05
79453;BME280;68899;52.116;5.404;2023-09-12T08:19:59;101426.22;;;24.50;62.81
79453;BME280;68899;52.116;5.404;2023-09-12T08:22:27;101426.06;;;24.52;62.95
79453;BME280;68899;52.116;5.404;2023-09-12T08:24:53;101425.72;;;24.55;62.44
79453;BME280;68899;52.116;5.404;2023-09-12T08:27:20;101429.91;;;24.58;62.98
79453;BME280;68899;52.116;5.404;2023-09-12T08:29:48;101422.50;;;24.60;62.93
79453;BME280;68899;52.116;5.404;2023-09-12T08:32:15;101432.91;;;24.63;62.25
79453;BME280;68899;52.116;5.404;2023-09-12T08:34:42;101430.06;;;24.64;62.16
79453;BME280;68899;52.116;5.404;2023-09-12T08:37:08;101423.34;;;24.68;62.31
79453;BME280;68899;52.116;5.404;2023-09-12T08:39:44;101429.00;;;24.73;62.29
79453;BME280;68899;52.116;5.404;2023-09-12T08:42:15;101426.66;;;24.78;62.04
79453;BME280;68899;52.116;5.404;2023-09-12T08:44:42;101426.31;;;24.81;62.37
79453;BME280;68899;52.116;5.404;2023-09-12T08:47:09;101428.50;;;24.86;61.78
79453;BME280;68899;52.116;5.404;2023-09-12T08:49:37;101421.72;;;24.90;61.89
79453;BME280;68899;52.116;5.404;2023-09-12T08:52:05;101424.06;;;24.93;62.55
79453;BME280;68899;52.116;5.404;2023-09-12T08:54:32;101424.75;;;24.95;62.30
79453;BME280;68899;52.116;5.404;2023-09-12T08:57:01;101424.22;;;25.00;62.32
79453;BME280;68899;52.116;5.404;2023-09-12T08:59:32;101423.75;;;25.04;61.89
79453;BME280;68899;52.116;5.404;2023-09-12T09:02:00;101419.66;;;25.08;61.45
79453;BME280;68899;52.116;5.404;2023-09-12T09:04:29;101413.59;;;25.15;61.68
79453;BME280;68899;52.116;5.404;2023-09-12T09:06:58;101418.59;;;25.18;61.68
79453;BME280;68899;52.116;5.404;2023-09-12T09:09:25;101421.13;;;25.19;61.25
79453;BME280;68899;52.116;5.404;2023-09-12T09:11:53;101420.78;;;25.22;61.65
79453;BME280;68899;52.116;5.404;2023-09-12T09:14:19;101423.66;;;25.21;61.16
79453;BME280;68899;52.116;5.404;2023-09-12T09:16:46;101432.59;;;25.21;61.29
79453;BME280;68899;52.116;5.404;2023-09-12T09:19:12;101435.28;;;25.21;61.47
79453;BME280;68899;52.116;5.404;2023-09-12T09:21:39;101431.38;;;25.24;61.38
79453;BME280;68899;52.116;5.404;2023-09-12T09:24:13;101434.53;;;25.27;61.33
79453;BME280;68899;52.116;5.404;2023-09-12T09:26:48;101437.56;;;25.32;61.19
79453;BME280;68899;52.116;5.404;2023-09-12T09:29:17;101434.50;;;25.35;61.43
79453;BME280;68899;52.116;5.404;2023-09-12T09:31:49;101438.72;;;25.38;60.81
79453;BME280;68899;52.116;5.404;2023-09-12T09:34:20;101432.78;;;25.43;60.79
79453;BME280;68899;52.116;5.404;2023-09-12T09:36:49;101436.63;;;25.48;60.86
79453;BME280;68899;52.116;5.404;2023-09-12T09:39:18;101432.56;;;25.52;60.70
79453;BME280;68899;52.116;5.404;2023-09-12T09:41:53;101427.66;;;25.56;60.87
79453;BME280;68899;52.116;5.404;2023-09-12T09:44:25;101437.25;;;25.58;60.46
79453;BME280;68899;52.116;5.404;2023-09-12T09:47:01;101441.25;;;25.62;60.90
79453;BME280;68899;52.116;5.404;2023-09-12T09:49:33;101434.03;;;25.63;60.46
79453;BME280;68899;52.116;5.404;2023-09-12T09:52:05;101436.19;;;25.68;60.90
79453;BME280;68899;52.116;5.404;2023-09-12T09:54:32;101428.44;;;25.73;60.46
79453;BME280;68899;52.116;5.404;2023-09-12T09:56:59;101434.94;;;25.78;60.27
79453;BME280;68899;52.116;5.404;2023-09-12T09:59:26;101439.81;;;25.83;60.51
79453;BME280;68899;52.116;5.404;2023-09-12T10:01:58;101437.41;;;25.88;60.48
79453;BME280;68899;52.116;5.404;2023-09-12T10:04:28;101437.91;;;25.91;59.99
79453;BME280;68899;52.116;5.404;2023-09-12T10:06:58;101445.44;;;25.96;59.77
79453;BME280;68899;52.116;5.404;2023-09-12T10:09:26;101446.75;;;26.00;60.32
79453;BME280;68899;52.116;5.404;2023-09-12T10:11:55;101447.88;;;26.06;59.89
79453;BME280;68899;52.116;5.404;2023-09-12T10:14:22;101448.56;;;26.08;60.20
79453;BME280;68899;52.116;5.404;2023-09-12T10:16:50;101447.16;;;26.12;60.01
79453;BME280;68899;52.116;5.404;2023-09-12T10:19:26;101450.50;;;26.14;59.89
79453;BME280;68899;52.116;5.404;2023-09-12T10:22:09;101455.25;;;26.12;60.11
79453;BME280;68899;52.116;5.404;2023-09-12T10:24:37;101453.88;;;26.16;59.06
79453;BME280;68899;52.116;5.404;2023-09-12T10:27:05;101443.94;;;26.16;59.85
79453;BME280;68899;52.116;5.404;2023-09-12T10:29:32;101446.91;;;26.21;59.78
79453;BME280;68899;52.116;5.404;2023-09-12T10:31:58;101434.56;;;26.27;59.55
79453;BME280;68899;52.116;5.404;2023-09-12T10:34:27;101428.44;;;26.33;59.34
79453;BME280;68899;52.116;5.404;2023-09-12T10:36:58;101426.88;;;26.39;59.46
79453;BME280;68899;52.116;5.404;2023-09-12T10:39:32;101429.91;;;26.36;59.17
79453;BME280;68899;52.116;5.404;2023-09-12T10:41:59;101439.03;;;26.35;59.74
79453;BME280;68899;52.116;5.404;2023-09-12T10:44:25;101440.22;;;26.32;58.94
79453;BME280;68899;52.116;5.404;2023-09-12T10:46:52;101446.00;;;26.29;59.42
79453;BME280;68899;52.116;5.404;2023-09-12T10:49:20;101439.56;;;26.30;59.61
79453;BME280;68899;52.116;5.404;2023-09-12T10:51:47;101447.47;;;26.32;59.36
79453;BME280;68899;52.116;5.404;2023-09-12T10:54:23;101447.13;;;26.35;59.55
79453;BME280;68899;52.116;5.404;2023-09-12T10:57:06;101450.97;;;26.40;59.42
79453;BME280;68899;52.116;5.404;2023-09-12T10:59:34;101445.88;;;26.45;59.06
79453;BME280;68899;52.116;5.404;2023-09-12T11:02:32;101445.78;;;26.54;59.10
79453;BME280;68899;52.116;5.404;2023-09-12T11:05:00;101445.22;;;26.58;58.90
79453;BME280;68899;52.116;5.404;2023-09-12T11:12:42;101449.22;;;26.47;59.08
79453;BME280;68899;52.116;5.404;2023-09-12T11:15:09;101440.03;;;26.42;59.57
79453;BME280;68899;52.116;5.404;2023-09-12T11:17:38;101442.78;;;26.48;59.50
79453;BME280;68899;52.116;5.404;2023-09-12T11:20:05;101433.59;;;26.58;58.71
79453;BME280;68899;52.116;5.404;2023-09-12T11:22:46;101418.97;;;26.67;58.88
79453;BME280;68899;52.116;5.404;2023-09-12T11:30:23;101415.44;;;26.81;58.62
79453;BME280;68899;52.116;5.404;2023-09-12T11:32:51;101416.09;;;26.83;58.56
79453;BME280;68899;52.116;5.404;2023-09-12T11:35:26;101416.47;;;26.80;58.62
79453;BME280;68899;52.116;5.404;2023-09-12T11:37:58;101410.16;;;26.73;58.39
79453;BME280;68899;52.116;5.404;2023-09-12T11:40:41;101413.22;;;26.70;58.70
79453;BME280;68899;52.116;5.404;2023-09-12T11:43:17;101413.78;;;26.65;58.37
79453;BME280;68899;52.116;5.404;2023-09-12T11:45:44;101420.38;;;26.63;58.76
79453;BME280;68899;52.116;5.404;2023-09-12T11:48:11;101416.03;;;26.62;58.85
79453;BME280;68899;52.116;5.404;2023-09-12T11:50:38;101416.97;;;26.69;58.96
79453;BME280;68899;52.116;5.404;2023-09-12T11:53:09;101410.53;;;26.70;58.48
79453;BME280;68899;52.116;5.404;2023-09-12T11:55:47;101417.22;;;26.74;58.68
79453;BME280;68899;52.116;5.404;2023-09-12T11:58:16;101414.16;;;26.77;58.35
79453;BME280;68899;52.116;5.404;2023-09-12T12:00:47;101422.72;;;26.81;58.54
79453;BME280;68899;52.116;5.404;2023-09-12T12:03:16;101417.41;;;26.87;58.70
79453;BME280;68899;52.116;5.404;2023-09-12T12:05:43;101407.06;;;26.91;58.46
79453;BME280;68899;52.116;5.404;2023-09-12T12:08:10;101401.47;;;26.92;58.18
79453;BME280;68899;52.116;5.404;2023-09-12T12:10:57;101406.13;;;26.98;58.10
79453;BME280;68899;52.116;5.404;2023-09-12T12:13:27;101411.84;;;27.03;57.93
79453;BME280;68899;52.116;5.404;2023-09-12T12:15:55;101419.00;;;27.11;57.92
79453;BME280;68899;52.116;5.404;2023-09-12T12:18:23;101404.28;;;27.14;57.49
79453;BME280;68899;52.116;5.404;2023-09-12T12:20:49;101401.88;;;27.04;57.49
79453;BME280;68899;52.116;5.404;2023-09-12T12:23:16;101398.41;;;26.95;58.04
79453;BME280;68899;52.116;5.404;2023-09-12T12:25:42;101397.50;;;26.88;58.29
79453;BME280;68899;52.116;5.404;2023-09-12T12:28:09;101387.63;;;26.81;58.31
79453;BME280;68899;52.116;5.404;2023-09-12T12:30:36;101399.34;;;26.73;58.62
79453;BME280;68899;52.116;5.404;2023-09-12T12:33:09;101401.78;;;26.68;58.77
79453;BME280;68899;52.116;5.404;2023-09-12T12:38:31;101392.28;;;26.57;58.93
79453;BME280;68899;52.116;5.404;2023-09-12T12:40:58;101388.53;;;26.58;59.11
79453;BME280;68899;52.116;5.404;2023-09-12T12:43:25;101387.63;;;26.66;58.96
79453;BME280;68899;52.116;5.404;2023-09-12T12:45:55;101381.09;;;26.75;58.54
79453;BME280;68899;52.116;5.404;2023-09-12T12:48:35;101383.53;;;26.85;58.67
79453;BME280;68899;52.116;5.404;2023-09-12T12:53:45;101382.75;;;26.91;58.29
79453;BME280;68899;52.116;5.404;2023-09-12T12:56:23;101380.84;;;26.85;58.34
79453;BME280;68899;52.116;5.404;2023-09-12T12:58:51;101384.47;;;26.77;58.24
79453;BME280;68899;52.116;5.404;2023-09-12T13:01:19;101381.47;;;26.72;58.60
79453;BME280;68899;52.116;5.404;2023-09-12T13:03:45;101390.16;;;26.67;58.58
79453;BME280;68899;52.116;5.404;2023-09-12T13:06:13;101383.44;;;26.63;59.04
79453;BME280;68899;52.116;5.404;2023-09-12T13:08:41;101385.69;;;26.60;58.80
79453;BME280;68899;52.116;5.404;2023-09-12T13:11:12;101385.41;;;26.55;58.91
79453;BME280;68899;52.116;5.404;2023-09-12T13:13:43;101382.25;;;26.51;59.04
79453;BME280;68899;52.116;5.404;2023-09-12T13:16:12;101379.91;;;26.48;59.70